Terminal Aerodrome Forecast
Issued by NWS Binghamton, NY

Home | Current Version | Previous Version | Text Only | Print | Product List | Glossary On
Versions: 1 2 3 4 5 6 7 8 9 10 11 12 13 14 15 16 17 18
000
FTUS41 KBGM 020500
TAFAVP
TAF
KAVP 020540Z 0206/0306 28010KT P6SM OVC025
      TEMPO 0206/0208 5SM -SHSN OVC015
     FM021400 30015G25KT P6SM SCT025 BKN050
     FM030000 30008KT P6SM SCT100=

USA.gov is the U.S. government's official web portal to all federal, state and local government web resources and services.